AirNav   Pilot Hours Calculator
 
 1067 users online  

53A Dr. C P Savage Sr. Airport
Montezuma, Georgia, USA

GOING TO MONTEZUMA?


FAA INFORMATION EFFECTIVE 08 OCTOBER 2020

Location

FAA Identifier: 53A
Lat/Long: 32-18-11.0280N 084-00-26.8850W
32-18.183800N 084-00.448083W
32.3030633,-84.0074681
(estimated)
Elevation: 345.3 ft. / 105.2 m (surveyed)
Variation: 04W (2005)
From city: 1 mile E of MONTEZUMA, GA
Time zone: UTC -4 (UTC -5 during Standard Time)
Zip code: 31063

Airport Operations

Airport use: Open to the public
Activation date: 09/1962
Control tower: no
ARTCC: ATLANTA CENTER
FSS: MACON FLIGHT SERVICE STATION
NOTAMs facility: MCN (NOTAM-D service available)
Attendance: UNATNDD
Wind indicator: lighted
Segmented circle: no
Lights: ACTVT PAPI RWYS 18 & 36; MIRL RWY 18/36 - CTAF.
Beacon: white-green (lighted land airport)
Operates sunset to sunrise.

Airport Communications

CTAF: 122.9
ATLANTA APPROACH: 124.2
ATLANTA DEPARTURE: 124.2
WX AWOS-3 at ACJ (15 nm SW): 128.375 (229-928-0934)
WX AWOS-3 at PXE (17 nm NE): 123.825 (478-987-8768)
WX AWOS-3 at 6A1 (20 nm NW): 119.525 (478-862-2966)
  • ATLANTA LARGE TRACON PROVIDES APCH/DEP SVC 0615-2300 ON FREQ 124.2/279.6 ; ATLANTA ARTCC PROVIDES APCH/DEP SVC 2300-0615 ON FREQS 134.5/360.75 (MACON RCAG).

Nearby radio navigation aids

VOR radial/distance  VOR name  Freq  Var
VNAr281/26.4VIENNA VORTAC116.5001E
MCNr217/29.6MACON VORTAC114.2001E

 
NDB name  Hdg/Dist  Freq  Var  ID
MONTEZUMA185/3.842604WIZS .. --.. ...
LINDBERGH038/9.324204WLKG .-.. -.- --.
CONEY344/19.840006WOHY --- .... -.--

Airport Services

Parking: tiedowns
Airframe service: NONE
Powerplant service: NONE
Bottled oxygen: NONE
Bulk oxygen: NONE

Runway Information

Runway 18/36

Dimensions: 5003 x 75 ft. / 1525 x 23 m
Surface: asphalt, in good condition
Weight bearing capacity: 
Single wheel: 30.0
Runway edge lights: medium intensity
RUNWAY 18  RUNWAY 36
Latitude: 32-18.596317N32-17.771290N
Longitude: 084-00.443633W084-00.452542W
Elevation: 345.3 ft.337.1 ft.
Traffic pattern: leftleft
Runway heading: 185 magnetic, 181 true005 magnetic, 001 true
Displaced threshold: 783 ft.no
Markings: nonprecision, in good conditionnonprecision, in good condition
Visual slope indicator: 2-light PAPI on left (3.30 degrees glide path)2-light PAPI on left (3.00 degrees glide path)
Touchdown point: yes, no lightsyes, no lights
Obstructions: 47 ft. tree, 576 ft. from runway, 200 ft. right of centerline, 8:1 slope to clear
30:1 TO DTHR
26 ft. pole, 1084 ft. from runway, 250 ft. left of centerline, 34:1 slope to clear

Airport Ownership and Management from official FAA records

Ownership: Publicly-owned
Owner: CITY OF MONTEZUMA
CITY HALL, P.O. BOX 388
MONTEZUMA, GA 31063
Phone 478-472-8144
Manager: LARRY SMITH, MAYOR
CITY HALL, P.O. BOX 388
MONTEZUMA, GA 31063
Phone 478-472-8144

Airport Operational Statistics

Aircraft based on the field: 10
Single engine airplanes: 8
Multi engine airplanes: 2
    
Aircraft operations: avg 96/week *
70% local general aviation
30% transient general aviation
* for 12-month period ending 01 December 2019

Additional Remarks

FOR CD CTC ATLANTA APCH AT 678-364-6132, WHEN APCH CLSD CTC ATLANTA ARTCC AT 770-210-7692.

Instrument Procedures

NOTE: All procedures below are presented as PDF files. If you need a reader for these files, you should download the free Adobe Reader.

NOT FOR NAVIGATION. Please procure official charts for flight.
FAA instrument procedures published for use from 08 October 2020 at 0901Z to 05 November 2020 at 0900Z.

 
IAPs - Instrument Approach Procedures
RNAV (GPS) RWY 18   download (206KB)
RNAV (GPS) RWY 36 **CHANGED**   download (211KB)
NDB RWY 18   download (205KB)
NOTE: Special Take-Off Minimums/Departure Procedures apply   download (189KB)

Other nearby airports with instrument procedures:

KACJ - Jimmy Carter Regional Airport (15 nm SW)
KPXE - Perry-Houston County Airport (17 nm NE)
6A1 - Butler Municipal Airport (20 nm NW)
KCKF - Crisp County-Cordele Airport (22 nm SE)
KWRB - Robins Air Force Base (29 nm NE)
 
Loc | Ops | Rwys | IFR | FBO | Links
Com | Nav | Svcs | Stats | Notes
Area around 53A (Dr. C P Savage Sr. Airport)
 
Road maps at: MapQuest Bing Google
 
Aerial photo
WARNING: Photo may not be current or correct
Aerial photo of 53A (Dr. C P Savage Sr. Airport)
Do you have a better or more recent aerial photo of Dr. C P Savage Sr. Airport that you would like to share? If so, please send us your photo.

 
Sectional chart

 
Airport distance calculator
Flying to Dr. C P Savage Sr. Airport? Find the distance to fly.

From to 53A

Sunrise and sunset
Times for 29-Oct-2020
 Local
(UTC-4)
 Zulu
(UTC)
Morning civil twilight07:2711:27
Sunrise07:5211:52
Sunset18:4722:47
Evening civil twilight19:1223:12

Current date and time
Zulu (UTC)  30-Oct-2020 00:15:48
Local (UTC-4)  29-Oct-2020 20:15:48
 
METAR
KACJ 
15nm SW 
292350Z AUTO 27018G26KT 10SM CLR 25/09 A2976 RMK AO2
KPXE 
17nm NE 
292355Z AUTO 25014G27KT 10SM SCT050 24/15 A2971 RMK AO2 T02450146 10287 20243 402890243
K6A1 
20nm NW 
292355Z AUTO 26018G21KT 10SM CLR 22/09 A2974 RMK AO2 T02240093 10290 20224
KCKF 
22nm SE 
292355Z AUTO 23009KT 10SM SCT049 24/14 A2974 RMK AO2 T02430137 10287 20243
KWRB 
29nm NE 
292356Z 26013G19KT 10SM FEW035 SCT070 26/17 A2967 RMK AO2A SLP047 60000 T02580172 10297 20258 53015
KMCN 
29nm NE 
292353Z AUTO 25014G22KT 10SM FEW055 25/15 A2967 RMK AO2 SLP043 T02500150 10300 20250 53015
TAF
KWRB 
29nm NE 
292230Z 2922/3103 24010G15KT 9999 BKN040 BKN250 QNH2963INS TEMPO 2922/2924 26015G25KT BECMG 3000/3001 27010G15KT 9999 SCT035 QNH2966INS BECMG 3002/3003 27009KT 9999 FEW035 QNH2979INS BECMG 3014/3015 31010G15KT 9999 SKC QNH3005INS BECMG 3017/3018 35009KT 9999 SKC QNH3010INS TX28/2922Z TN10/3012Z
KMCN 
29nm NE 
291733Z 2918/3018 23012G22KT P6SM VCSH SCT030 BKN040 TEMPO 2918/2921 BKN030 FM292100 22010G18KT P6SM SCT035 BKN050 FM300200 26012KT P6SM SCT045 FM300600 28010G18KT P6SM SCT050 FM301300 30012KT P6SM SCT035 SCT050
NOTAMs
Click for the latest NOTAMs
NOTAMs are issued by the DoD/FAA and will open in a separate window not controlled by AirNav.

 

 
 

Would you like to see your business listed on this page?

 If your business provides an interesting product or service to pilots, flight crews, aircraft, or users of the Dr. C P Savage Sr. Airport, you should consider listing it here.  To start the listing process, click on the button below
 
Add a business
 

Other Pages about Dr. C P Savage Sr. Airport

Update a link
 
Copyright © AirNav, LLC. All rights reserved. Privacy Policy  Contact